sensor_id;sensor_type;location;lat;lon;timestamp;temperature;humidity
24458;DHT22;12629;50.860;5.714;2022-12-24T00:02:08;10.70;99.90
24458;DHT22;12629;50.860;5.714;2022-12-24T00:04:35;10.70;99.90
24458;DHT22;12629;50.860;5.714;2022-12-24T00:07:02;10.70;99.90
24458;DHT22;12629;50.860;5.714;2022-12-24T00:09:31;10.80;99.90
24458;DHT22;12629;50.860;5.714;2022-12-24T00:11:58;10.80;99.90
24458;DHT22;12629;50.860;5.714;2022-12-24T00:14:26;10.80;99.90
24458;DHT22;12629;50.860;5.714;2022-12-24T00:16:53;10.80;99.90
24458;DHT22;12629;50.860;5.714;2022-12-24T00:19:20;10.90;99.90
24458;DHT22;12629;50.860;5.714;2022-12-24T00:21:47;10.90;99.90
24458;DHT22;12629;50.860;5.714;2022-12-24T00:24:16;10.90;99.90
24458;DHT22;12629;50.860;5.714;2022-12-24T00:26:44;10.80;99.90
24458;DHT22;12629;50.860;5.714;2022-12-24T00:29:12;10.80;99.90
24458;DHT22;12629;50.860;5.714;2022-12-24T00:31:39;10.70;99.90
24458;DHT22;12629;50.860;5.714;2022-12-24T00:34:06;10.70;99.90
24458;DHT22;12629;50.860;5.714;2022-12-24T00:36:34;10.70;99.90
24458;DHT22;12629;50.860;5.714;2022-12-24T00:39:01;10.70;99.90
24458;DHT22;12629;50.860;5.714;2022-12-24T00:41:28;10.70;99.90
24458;DHT22;12629;50.860;5.714;2022-12-24T00:43:58;10.70;99.90
24458;DHT22;12629;50.860;5.714;2022-12-24T00:46:28;10.70;99.90
24458;DHT22;12629;50.860;5.714;2022-12-24T00:48:55;10.60;99.90
24458;DHT22;12629;50.860;5.714;2022-12-24T00:51:23;10.60;99.90
24458;DHT22;12629;50.860;5.714;2022-12-24T00:53:51;10.60;99.90
24458;DHT22;12629;50.860;5.714;2022-12-24T00:56:19;10.50;99.90
24458;DHT22;12629;50.860;5.714;2022-12-24T00:58:46;10.50;99.90
24458;DHT22;12629;50.860;5.714;2022-12-24T01:01:15;10.40;99.90
24458;DHT22;12629;50.860;5.714;2022-12-24T01:03:42;10.40;99.90
24458;DHT22;12629;50.860;5.714;2022-12-24T01:06:11;10.40;99.90
24458;DHT22;12629;50.860;5.714;2022-12-24T01:08:38;10.30;99.90
24458;DHT22;12629;50.860;5.714;2022-12-24T01:11:07;10.20;99.90
24458;DHT22;12629;50.860;5.714;2022-12-24T01:13:35;10.30;99.90
24458;DHT22;12629;50.860;5.714;2022-12-24T01:16:03;10.20;99.90
24458;DHT22;12629;50.860;5.714;2022-12-24T01:18:31;10.20;99.90
24458;DHT22;12629;50.860;5.714;2022-12-24T01:21:00;10.20;99.90
24458;DHT22;12629;50.860;5.714;2022-12-24T01:23:29;10.30;99.90
24458;DHT22;12629;50.860;5.714;2022-12-24T01:25:59;10.20;99.90
24458;DHT22;12629;50.860;5.714;2022-12-24T01:28:27;10.30;99.90
24458;DHT22;12629;50.860;5.714;2022-12-24T01:30:54;10.30;99.90
24458;DHT22;12629;50.860;5.714;2022-12-24T01:33:21;10.30;99.90
24458;DHT22;12629;50.860;5.714;2022-12-24T01:35:50;10.40;99.90
24458;DHT22;12629;50.860;5.714;2022-12-24T01:38:17;10.40;99.90
24458;DHT22;12629;50.860;5.714;2022-12-24T01:40:44;10.40;99.90
24458;DHT22;12629;50.860;5.714;2022-12-24T01:43:31;10.40;99.90
24458;DHT22;12629;50.860;5.714;2022-12-24T01:45:59;10.40;99.90
24458;DHT22;12629;50.860;5.714;2022-12-24T01:48:36;10.40;99.90
24458;DHT22;12629;50.860;5.714;2022-12-24T01:51:11;10.40;99.90
24458;DHT22;12629;50.860;5.714;2022-12-24T01:53:43;10.30;99.90
24458;DHT22;12629;50.860;5.714;2022-12-24T01:56:12;10.20;99.90
24458;DHT22;12629;50.860;5.714;2022-12-24T01:58:42;10.20;99.90
24458;DHT22;12629;50.860;5.714;2022-12-24T02:01:12;10.10;99.90
24458;DHT22;12629;50.860;5.714;2022-12-24T02:03:39;10.00;99.90
24458;DHT22;12629;50.860;5.714;2022-12-24T02:06:08;10.00;99.90
24458;DHT22;12629;50.860;5.714;2022-12-24T02:08:37;9.90;99.90
24458;DHT22;12629;50.860;5.714;2022-12-24T02:11:11;9.90;99.90
24458;DHT22;12629;50.860;5.714;2022-12-24T02:13:39;9.90;99.90
24458;DHT22;12629;50.860;5.714;2022-12-24T02:16:14;9.80;99.90
24458;DHT22;12629;50.860;5.714;2022-12-24T02:18:48;9.80;99.90
24458;DHT22;12629;50.860;5.714;2022-12-24T02:21:52;9.80;99.90
24458;DHT22;12629;50.860;5.714;2022-12-24T02:27:26;9.70;99.90
24458;DHT22;12629;50.860;5.714;2022-12-24T02:30:09;9.70;99.90
24458;DHT22;12629;50.860;5.714;2022-12-24T02:32:58;9.80;99.90
24458;DHT22;12629;50.860;5.714;2022-12-24T02:35:34;9.80;99.90
24458;DHT22;12629;50.860;5.714;2022-12-24T02:38:07;9.70;99.90
24458;DHT22;12629;50.860;5.714;2022-12-24T02:40:40;9.70;99.90
24458;DHT22;12629;50.860;5.714;2022-12-24T02:43:09;9.70;99.90
24458;DHT22;12629;50.860;5.714;2022-12-24T02:45:40;9.70;99.90
24458;DHT22;12629;50.860;5.714;2022-12-24T02:48:09;9.70;99.90
24458;DHT22;12629;50.860;5.714;2022-12-24T02:50:39;9.70;99.90
24458;DHT22;12629;50.860;5.714;2022-12-24T02:53:08;9.60;99.90
24458;DHT22;12629;50.860;5.714;2022-12-24T02:55:45;9.50;99.90
24458;DHT22;12629;50.860;5.714;2022-12-24T02:58:28;9.40;99.90
24458;DHT22;12629;50.860;5.714;2022-12-24T03:01:08;9.40;99.90
24458;DHT22;12629;50.860;5.714;2022-12-24T03:03:55;9.40;99.90
24458;DHT22;12629;50.860;5.714;2022-12-24T03:06:32;9.40;99.90
24458;DHT22;12629;50.860;5.714;2022-12-24T03:09:05;9.30;99.90
24458;DHT22;12629;50.860;5.714;2022-12-24T03:11:35;9.30;99.90
24458;DHT22;12629;50.860;5.714;2022-12-24T03:14:04;9.30;99.90
24458;DHT22;12629;50.860;5.714;2022-12-24T03:16:33;9.20;99.90
24458;DHT22;12629;50.860;5.714;2022-12-24T03:19:01;9.10;99.90
24458;DHT22;12629;50.860;5.714;2022-12-24T03:21:31;9.20;99.90
24458;DHT22;12629;50.860;5.714;2022-12-24T03:23:59;9.20;99.90
24458;DHT22;12629;50.860;5.714;2022-12-24T03:26:29;9.20;99.90
24458;DHT22;12629;50.860;5.714;2022-12-24T03:28:58;9.30;99.90
24458;DHT22;12629;50.860;5.714;2022-12-24T03:31:26;9.40;99.90
24458;DHT22;12629;50.860;5.714;2022-12-24T03:33:54;9.50;99.90
24458;DHT22;12629;50.860;5.714;2022-12-24T03:36:22;9.70;99.90
24458;DHT22;12629;50.860;5.714;2022-12-24T03:38:51;9.80;99.90
24458;DHT22;12629;50.860;5.714;2022-12-24T03:41:18;9.80;99.90
24458;DHT22;12629;50.860;5.714;2022-12-24T03:43:45;9.90;99.90
24458;DHT22;12629;50.860;5.714;2022-12-24T03:46:12;9.90;99.90
24458;DHT22;12629;50.860;5.714;2022-12-24T03:48:39;9.80;99.90
24458;DHT22;12629;50.860;5.714;2022-12-24T03:51:16;9.70;99.90
24458;DHT22;12629;50.860;5.714;2022-12-24T03:53:43;9.70;99.90
24458;DHT22;12629;50.860;5.714;2022-12-24T03:56:10;9.70;99.90
24458;DHT22;12629;50.860;5.714;2022-12-24T03:58:38;9.70;99.90
24458;DHT22;12629;50.860;5.714;2022-12-24T04:01:05;9.70;99.90
24458;DHT22;12629;50.860;5.714;2022-12-24T04:03:32;9.80;99.90
24458;DHT22;12629;50.860;5.714;2022-12-24T04:06:04;9.70;99.90
24458;DHT22;12629;50.860;5.714;2022-12-24T04:08:33;9.70;99.90
24458;DHT22;12629;50.860;5.714;2022-12-24T04:11:02;9.70;99.90
24458;DHT22;12629;50.860;5.714;2022-12-24T04:13:30;9.80;99.90
24458;DHT22;12629;50.860;5.714;2022-12-24T04:15:58;9.80;99.90
24458;DHT22;12629;50.860;5.714;2022-12-24T04:18:26;9.80;99.90
24458;DHT22;12629;50.860;5.714;2022-12-24T04:20:54;9.70;99.90
24458;DHT22;12629;50.860;5.714;2022-12-24T04:23:22;9.80;99.90
24458;DHT22;12629;50.860;5.714;2022-12-24T04:25:51;9.80;99.90
24458;DHT22;12629;50.860;5.714;2022-12-24T04:28:18;9.80;99.90
24458;DHT22;12629;50.860;5.714;2022-12-24T04:30:45;9.80;99.90
24458;DHT22;12629;50.860;5.714;2022-12-24T04:33:12;9.80;99.90
24458;DHT22;12629;50.860;5.714;2022-12-24T04:35:40;9.80;99.90
24458;DHT22;12629;50.860;5.714;2022-12-24T04:38:08;9.80;99.90
24458;DHT22;12629;50.860;5.714;2022-12-24T04:40:35;9.80;99.90
24458;DHT22;12629;50.860;5.714;2022-12-24T04:43:04;9.80;99.90
24458;DHT22;12629;50.860;5.714;2022-12-24T04:45:31;9.80;99.90
24458;DHT22;12629;50.860;5.714;2022-12-24T04:47:58;9.80;99.90
24458;DHT22;12629;50.860;5.714;2022-12-24T04:50:26;9.70;99.90
24458;DHT22;12629;50.860;5.714;2022-12-24T04:52:53;9.70;99.90
24458;DHT22;12629;50.860;5.714;2022-12-24T04:55:20;9.80;99.90
24458;DHT22;12629;50.860;5.714;2022-12-24T04:57:47;9.80;99.90
24458;DHT22;12629;50.860;5.714;2022-12-24T05:00:16;9.80;99.90
24458;DHT22;12629;50.860;5.714;2022-12-24T05:02:43;9.80;99.90
24458;DHT22;12629;50.860;5.714;2022-12-24T05:05:10;9.80;99.90
24458;DHT22;12629;50.860;5.714;2022-12-24T05:07:38;9.80;99.90
24458;DHT22;12629;50.860;5.714;2022-12-24T05:10:06;9.80;99.90
24458;DHT22;12629;50.860;5.714;2022-12-24T05:12:35;9.80;99.90
24458;DHT22;12629;50.860;5.714;2022-12-24T05:15:03;9.80;99.90
24458;DHT22;12629;50.860;5.714;2022-12-24T05:17:32;9.90;99.90
24458;DHT22;12629;50.860;5.714;2022-12-24T05:19:59;9.80;99.90
24458;DHT22;12629;50.860;5.714;2022-12-24T05:22:26;9.80;99.90
24458;DHT22;12629;50.860;5.714;2022-12-24T05:25:11;9.80;99.90
24458;DHT22;12629;50.860;5.714;2022-12-24T05:27:55;9.80;99.90
24458;DHT22;12629;50.860;5.714;2022-12-24T05:30:22;9.90;99.90
24458;DHT22;12629;50.860;5.714;2022-12-24T05:32:51;9.90;99.90
24458;DHT22;12629;50.860;5.714;2022-12-24T05:35:18;9.90;99.90
24458;DHT22;12629;50.860;5.714;2022-12-24T05:37:46;9.80;99.90
24458;DHT22;12629;50.860;5.714;2022-12-24T05:40:13;9.80;99.90
24458;DHT22;12629;50.860;5.714;2022-12-24T05:42:40;9.90;99.90
24458;DHT22;12629;50.860;5.714;2022-12-24T05:45:08;9.80;99.90
24458;DHT22;12629;50.860;5.714;2022-12-24T05:47:36;9.90;99.90
24458;DHT22;12629;50.860;5.714;2022-12-24T05:50:05;9.80;99.90
24458;DHT22;12629;50.860;5.714;2022-12-24T05:52:33;9.80;99.90
24458;DHT22;12629;50.860;5.714;2022-12-24T05:55:00;9.80;99.90
24458;DHT22;12629;50.860;5.714;2022-12-24T05:57:27;9.80;99.90
24458;DHT22;12629;50.860;5.714;2022-12-24T05:59:54;9.80;99.90
24458;DHT22;12629;50.860;5.714;2022-12-24T06:02:22;9.90;99.90
24458;DHT22;12629;50.860;5.714;2022-12-24T06:04:49;9.90;99.90
24458;DHT22;12629;50.860;5.714;2022-12-24T06:07:18;9.90;99.90
24458;DHT22;12629;50.860;5.714;2022-12-24T06:09:45;9.90;99.90
24458;DHT22;12629;50.860;5.714;2022-12-24T06:12:12;9.90;99.90
24458;DHT22;12629;50.860;5.714;2022-12-24T06:14:39;9.80;99.90
24458;DHT22;12629;50.860;5.714;2022-12-24T06:17:06;9.80;99.90
24458;DHT22;12629;50.860;5.714;2022-12-24T06:19:33;9.80;99.90
24458;DHT22;12629;50.860;5.714;2022-12-24T06:22:01;9.80;99.90
24458;DHT22;12629;50.860;5.714;2022-12-24T06:24:29;9.80;99.90
24458;DHT22;12629;50.860;5.714;2022-12-24T06:26:56;9.90;99.90
24458;DHT22;12629;50.860;5.714;2022-12-24T06:29:24;9.90;99.90
24458;DHT22;12629;50.860;5.714;2022-12-24T06:31:51;9.80;99.90
24458;DHT22;12629;50.860;5.714;2022-12-24T06:34:18;9.90;99.90
24458;DHT22;12629;50.860;5.714;2022-12-24T06:36:46;9.90;99.90
24458;DHT22;12629;50.860;5.714;2022-12-24T06:39:13;9.80;99.90
24458;DHT22;12629;50.860;5.714;2022-12-24T06:41:41;9.80;99.90
24458;DHT22;12629;50.860;5.714;2022-12-24T06:44:09;9.70;99.90
24458;DHT22;12629;50.860;5.714;2022-12-24T06:46:36;9.70;99.90
24458;DHT22;12629;50.860;5.714;2022-12-24T06:49:03;9.70;99.90
24458;DHT22;12629;50.860;5.714;2022-12-24T06:51:30;9.60;99.90
24458;DHT22;12629;50.860;5.714;2022-12-24T06:53:58;9.60;99.90
24458;DHT22;12629;50.860;5.714;2022-12-24T06:56:25;9.70;99.90
24458;DHT22;12629;50.860;5.714;2022-12-24T06:58:54;9.70;99.90
24458;DHT22;12629;50.860;5.714;2022-12-24T07:01:21;9.70;99.90
24458;DHT22;12629;50.860;5.714;2022-12-24T07:03:49;9.70;99.90
24458;DHT22;12629;50.860;5.714;2022-12-24T07:06:20;9.70;99.90
24458;DHT22;12629;50.860;5.714;2022-12-24T07:08:50;9.70;99.90
24458;DHT22;12629;50.860;5.714;2022-12-24T07:11:17;9.80;99.90
24458;DHT22;12629;50.860;5.714;2022-12-24T07:13:45;9.80;99.90
24458;DHT22;12629;50.860;5.714;2022-12-24T07:16:15;9.70;99.90
24458;DHT22;12629;50.860;5.714;2022-12-24T07:18:43;9.70;99.90
24458;DHT22;12629;50.860;5.714;2022-12-24T07:21:10;9.80;99.90
24458;DHT22;12629;50.860;5.714;2022-12-24T07:23:37;9.90;99.90
24458;DHT22;12629;50.860;5.714;2022-12-24T07:26:05;10.00;99.90
24458;DHT22;12629;50.860;5.714;2022-12-24T07:28:33;10.00;99.90
24458;DHT22;12629;50.860;5.714;2022-12-24T07:31:00;10.00;99.90
24458;DHT22;12629;50.860;5.714;2022-12-24T07:33:29;9.90;99.90
24458;DHT22;12629;50.860;5.714;2022-12-24T07:35:58;9.90;99.90
24458;DHT22;12629;50.860;5.714;2022-12-24T07:38:26;9.90;99.90
24458;DHT22;12629;50.860;5.714;2022-12-24T07:40:53;9.90;99.90
24458;DHT22;12629;50.860;5.714;2022-12-24T07:43:20;9.90;99.90
24458;DHT22;12629;50.860;5.714;2022-12-24T07:45:47;10.00;99.90
24458;DHT22;12629;50.860;5.714;2022-12-24T07:48:15;10.00;99.90
24458;DHT22;12629;50.860;5.714;2022-12-24T07:50:43;10.00;99.90
24458;DHT22;12629;50.860;5.714;2022-12-24T07:53:11;10.10;99.90
24458;DHT22;12629;50.860;5.714;2022-12-24T07:55:38;10.10;99.90
24458;DHT22;12629;50.860;5.714;2022-12-24T07:58:05;10.10;99.90
24458;DHT22;12629;50.860;5.714;2022-12-24T08:00:32;10.10;99.90
24458;DHT22;12629;50.860;5.714;2022-12-24T08:02:59;10.10;99.90
24458;DHT22;12629;50.860;5.714;2022-12-24T08:05:27;10.00;99.90
24458;DHT22;12629;50.860;5.714;2022-12-24T08:07:55;10.10;99.90
24458;DHT22;12629;50.860;5.714;2022-12-24T08:10:23;10.10;99.90
24458;DHT22;12629;50.860;5.714;2022-12-24T08:12:50;10.10;99.90
24458;DHT22;12629;50.860;5.714;2022-12-24T08:15:18;10.20;99.90
24458;DHT22;12629;50.860;5.714;2022-12-24T08:17:45;10.20;99.90
24458;DHT22;12629;50.860;5.714;2022-12-24T08:20:12;10.20;99.90
24458;DHT22;12629;50.860;5.714;2022-12-24T08:22:40;10.20;99.90
24458;DHT22;12629;50.860;5.714;2022-12-24T08:25:09;10.30;99.90
24458;DHT22;12629;50.860;5.714;2022-12-24T08:27:37;10.30;99.90
24458;DHT22;12629;50.860;5.714;2022-12-24T08:30:05;10.30;99.90
24458;DHT22;12629;50.860;5.714;2022-12-24T08:32:33;10.30;99.90
24458;DHT22;12629;50.860;5.714;2022-12-24T08:35:01;10.40;99.90
24458;DHT22;12629;50.860;5.714;2022-12-24T08:37:28;10.40;99.90
24458;DHT22;12629;50.860;5.714;2022-12-24T08:39:55;10.40;99.90
24458;DHT22;12629;50.860;5.714;2022-12-24T08:42:24;10.40;99.90
24458;DHT22;12629;50.860;5.714;2022-12-24T08:44:51;10.40;99.90
24458;DHT22;12629;50.860;5.714;2022-12-24T08:47:18;10.50;99.90
24458;DHT22;12629;50.860;5.714;2022-12-24T08:49:45;10.50;99.90
24458;DHT22;12629;50.860;5.714;2022-12-24T08:52:12;10.40;99.90
24458;DHT22;12629;50.860;5.714;2022-12-24T08:54:40;10.50;99.90
24458;DHT22;12629;50.860;5.714;2022-12-24T08:57:07;10.50;99.90
24458;DHT22;12629;50.860;5.714;2022-12-24T08:59:36;10.60;99.90
24458;DHT22;12629;50.860;5.714;2022-12-24T09:02:03;10.50;99.90
24458;DHT22;12629;50.860;5.714;2022-12-24T09:04:30;10.50;99.90
24458;DHT22;12629;50.860;5.714;2022-12-24T09:06:58;10.50;99.90
24458;DHT22;12629;50.860;5.714;2022-12-24T09:09:25;10.60;99.90
24458;DHT22;12629;50.860;5.714;2022-12-24T09:11:53;10.60;99.90
24458;DHT22;12629;50.860;5.714;2022-12-24T09:14:20;10.70;99.90
24458;DHT22;12629;50.860;5.714;2022-12-24T09:16:49;10.70;99.90
24458;DHT22;12629;50.860;5.714;2022-12-24T09:19:17;10.80;99.90
24458;DHT22;12629;50.860;5.714;2022-12-24T09:21:44;10.80;99.90
24458;DHT22;12629;50.860;5.714;2022-12-24T09:24:11;10.90;99.90
24458;DHT22;12629;50.860;5.714;2022-12-24T09:26:40;11.00;99.90
24458;DHT22;12629;50.860;5.714;2022-12-24T09:29:08;11.10;99.90
24458;DHT22;12629;50.860;5.714;2022-12-24T09:31:36;11.10;99.90
24458;DHT22;12629;50.860;5.714;2022-12-24T09:34:04;11.10;99.90
24458;DHT22;12629;50.860;5.714;2022-12-24T09:36:33;11.10;99.90
24458;DHT22;12629;50.860;5.714;2022-12-24T09:39:00;11.10;99.90
24458;DHT22;12629;50.860;5.714;2022-12-24T09:41:38;11.10;99.90
24458;DHT22;12629;50.860;5.714;2022-12-24T09:44:16;11.10;99.90
24458;DHT22;12629;50.860;5.714;2022-12-24T09:46:46;11.10;99.90
24458;DHT22;12629;50.860;5.714;2022-12-24T09:49:20;11.10;99.90
24458;DHT22;12629;50.860;5.714;2022-12-24T09:51:51;11.00;99.90
24458;DHT22;12629;50.860;5.714;2022-12-24T09:54:24;10.90;99.90
24458;DHT22;12629;50.860;5.714;2022-12-24T09:56:53;10.90;99.90
24458;DHT22;12629;50.860;5.714;2022-12-24T09:59:22;10.90;99.90
24458;DHT22;12629;50.860;5.714;2022-12-24T10:01:51;10.90;99.90
24458;DHT22;12629;50.860;5.714;2022-12-24T10:04:25;10.90;99.90
24458;DHT22;12629;50.860;5.714;2022-12-24T10:07:01;10.90;99.90
24458;DHT22;12629;50.860;5.714;2022-12-24T10:09:36;10.90;99.90
24458;DHT22;12629;50.860;5.714;2022-12-24T10:12:14;10.90;99.90
24458;DHT22;12629;50.860;5.714;2022-12-24T10:14:53;11.00;99.90
24458;DHT22;12629;50.860;5.714;2022-12-24T10:17:37;11.00;99.90
24458;DHT22;12629;50.860;5.714;2022-12-24T10:20:29;11.00;99.90
24458;DHT22;12629;50.860;5.714;2022-12-24T10:23:03;11.00;99.90
24458;DHT22;12629;50.860;5.714;2022-12-24T10:25:36;11.00;99.90
24458;DHT22;12629;50.860;5.714;2022-12-24T10:28:13;11.10;99.90
24458;DHT22;12629;50.860;5.714;2022-12-24T10:30:41;11.10;99.90
24458;DHT22;12629;50.860;5.714;2022-12-24T10:33:15;11.10;99.90
24458;DHT22;12629;50.860;5.714;2022-12-24T10:35:48;11.10;99.90
24458;DHT22;12629;50.860;5.714;2022-12-24T10:38:18;11.10;99.90
24458;DHT22;12629;50.860;5.714;2022-12-24T10:40:47;11.20;99.90
24458;DHT22;12629;50.860;5.714;2022-12-24T10:43:15;11.20;99.90
24458;DHT22;12629;50.860;5.714;2022-12-24T10:45:45;11.20;99.90
24458;DHT22;12629;50.860;5.714;2022-12-24T10:48:20;11.20;99.90
24458;DHT22;12629;50.860;5.714;2022-12-24T10:50:58;11.30;99.90
24458;DHT22;12629;50.860;5.714;2022-12-24T10:53:33;11.30;99.90
24458;DHT22;12629;50.860;5.714;2022-12-24T10:56:05;11.30;99.90
24458;DHT22;12629;50.860;5.714;2022-12-24T10:58:33;11.40;99.90
24458;DHT22;12629;50.860;5.714;2022-12-24T11:01:01;11.40;99.90
24458;DHT22;12629;50.860;5.714;2022-12-24T11:03:31;11.40;99.90
24458;DHT22;12629;50.860;5.714;2022-12-24T11:06:07;11.40;99.90
24458;DHT22;12629;50.860;5.714;2022-12-24T11:08:36;11.40;99.90
24458;DHT22;12629;50.860;5.714;2022-12-24T11:11:05;11.40;99.90
24458;DHT22;12629;50.860;5.714;2022-12-24T11:13:34;11.40;99.90
24458;DHT22;12629;50.860;5.714;2022-12-24T11:16:05;11.50;99.90
24458;DHT22;12629;50.860;5.714;2022-12-24T11:18:35;11.40;99.90
24458;DHT22;12629;50.860;5.714;2022-12-24T11:21:05;11.40;99.90
24458;DHT22;12629;50.860;5.714;2022-12-24T11:23:34;11.40;99.90
24458;DHT22;12629;50.860;5.714;2022-12-24T11:26:01;11.40;99.90
24458;DHT22;12629;50.860;5.714;2022-12-24T11:28:30;11.50;99.90
24458;DHT22;12629;50.860;5.714;2022-12-24T11:31:04;11.50;99.90
24458;DHT22;12629;50.860;5.714;2022-12-24T11:33:32;11.50;99.90
24458;DHT22;12629;50.860;5.714;2022-12-24T11:36:14;11.50;99.90
24458;DHT22;12629;50.860;5.714;2022-12-24T11:38:51;11.60;99.90
24458;DHT22;12629;50.860;5.714;2022-12-24T11:41:19;11.60;99.90
24458;DHT22;12629;50.860;5.714;2022-12-24T11:43:49;11.70;99.90
24458;DHT22;12629;50.860;5.714;2022-12-24T11:46:19;11.90;99.90
24458;DHT22;12629;50.860;5.714;2022-12-24T11:48:47;12.10;99.90
24458;DHT22;12629;50.860;5.714;2022-12-24T11:51:32;12.20;99.90
24458;DHT22;12629;50.860;5.714;2022-12-24T11:54:07;12.20;99.90
24458;DHT22;12629;50.860;5.714;2022-12-24T11:56:37;12.20;99.90
24458;DHT22;12629;50.860;5.714;2022-12-24T11:59:14;12.30;99.90
24458;DHT22;12629;50.860;5.714;2022-12-24T12:01:51;12.20;99.90
24458;DHT22;12629;50.860;5.714;2022-12-24T12:04:23;12.10;99.90
24458;DHT22;12629;50.860;5.714;2022-12-24T12:06:56;12.10;99.90
24458;DHT22;12629;50.860;5.714;2022-12-24T12:09:27;12.00;99.90
24458;DHT22;12629;50.860;5.714;2022-12-24T12:11:59;12.00;99.90
24458;DHT22;12629;50.860;5.714;2022-12-24T12:14:29;12.10;99.90
24458;DHT22;12629;50.860;5.714;2022-12-24T12:17:02;12.10;99.90
24458;DHT22;12629;50.860;5.714;2022-12-24T12:19:38;12.20;99.90
24458;DHT22;12629;50.860;5.714;2022-12-24T12:22:15;12.10;99.90
24458;DHT22;12629;50.860;5.714;2022-12-24T12:24:47;12.10;99.90
24458;DHT22;12629;50.860;5.714;2022-12-24T12:27:20;12.10;99.90
24458;DHT22;12629;50.860;5.714;2022-12-24T12:29:53;12.10;99.90
24458;DHT22;12629;50.860;5.714;2022-12-24T12:32:26;12.10;99.90
24458;DHT22;12629;50.860;5.714;2022-12-24T12:35:00;12.20;99.90
24458;DHT22;12629;50.860;5.714;2022-12-24T12:37:35;12.30;99.90
24458;DHT22;12629;50.860;5.714;2022-12-24T12:40:12;12.20;99.90
24458;DHT22;12629;50.860;5.714;2022-12-24T12:42:40;12.20;99.90
24458;DHT22;12629;50.860;5.714;2022-12-24T12:45:32;12.20;99.90
24458;DHT22;12629;50.860;5.714;2022-12-24T12:48:19;12.30;99.90
24458;DHT22;12629;50.860;5.714;2022-12-24T12:50:51;12.40;99.90
24458;DHT22;12629;50.860;5.714;2022-12-24T12:53:42;12.40;99.90
24458;DHT22;12629;50.860;5.714;2022-12-24T12:56:24;12.40;99.90
24458;DHT22;12629;50.860;5.714;2022-12-24T12:58:59;12.50;99.90
24458;DHT22;12629;50.860;5.714;2022-12-24T13:01:38;12.70;99.90
24458;DHT22;12629;50.860;5.714;2022-12-24T13:07:54;12.50;99.90
24458;DHT22;12629;50.860;5.714;2022-12-24T13:10:45;12.50;99.90
24458;DHT22;12629;50.860;5.714;2022-12-24T13:16:44;12.50;99.90
24458;DHT22;12629;50.860;5.714;2022-12-24T13:19:28;12.40;99.90
24458;DHT22;12629;50.860;5.714;2022-12-24T13:22:00;12.40;99.90
24458;DHT22;12629;50.860;5.714;2022-12-24T13:24:29;12.30;99.90
24458;DHT22;12629;50.860;5.714;2022-12-24T13:27:10;12.20;99.90
24458;DHT22;12629;50.860;5.714;2022-12-24T13:29:50;12.00;99.90
24458;DHT22;12629;50.860;5.714;2022-12-24T13:32:47;12.00;99.90
24458;DHT22;12629;50.860;5.714;2022-12-24T13:35:34;11.80;99.90
24458;DHT22;12629;50.860;5.714;2022-12-24T13:38:29;11.70;99.90
24458;DHT22;12629;50.860;5.714;2022-12-24T13:44:28;11.50;99.90
24458;DHT22;12629;50.860;5.714;2022-12-24T13:47:14;11.50;99.90
24458;DHT22;12629;50.860;5.714;2022-12-24T13:49:48;11.40;99.90
24458;DHT22;12629;50.860;5.714;2022-12-24T13:52:25;11.30;99.90
24458;DHT22;12629;50.860;5.714;2022-12-24T13:55:14;11.30;99.90
24458;DHT22;12629;50.860;5.714;2022-12-24T13:57:52;11.30;99.90
24458;DHT22;12629;50.860;5.714;2022-12-24T14:00:31;11.40;99.90
24458;DHT22;12629;50.860;5.714;2022-12-24T14:03:04;11.40;99.90
24458;DHT22;12629;50.860;5.714;2022-12-24T14:05:35;11.40;99.90
24458;DHT22;12629;50.860;5.714;2022-12-24T14:08:05;11.40;99.90
24458;DHT22;12629;50.860;5.714;2022-12-24T14:10:38;11.50;99.90
24458;DHT22;12629;50.860;5.714;2022-12-24T14:13:05;11.40;99.90
24458;DHT22;12629;50.860;5.714;2022-12-24T14:16:07;11.40;99.90
24458;DHT22;12629;50.860;5.714;2022-12-24T14:18:38;11.40;99.90
24458;DHT22;12629;50.860;5.714;2022-12-24T14:21:13;11.40;99.90
24458;DHT22;12629;50.860;5.714;2022-12-24T14:23:53;11.40;99.90
24458;DHT22;12629;50.860;5.714;2022-12-24T14:26:24;11.40;99.90
24458;DHT22;12629;50.860;5.714;2022-12-24T14:28:55;11.40;99.90
24458;DHT22;12629;50.860;5.714;2022-12-24T14:31:24;11.30;99.90
24458;DHT22;12629;50.860;5.714;2022-12-24T14:33:54;11.30;99.90
24458;DHT22;12629;50.860;5.714;2022-12-24T14:36:31;11.30;99.90
24458;DHT22;12629;50.860;5.714;2022-12-24T14:38:59;11.30;99.90
24458;DHT22;12629;50.860;5.714;2022-12-24T14:41:41;11.30;99.90
24458;DHT22;12629;50.860;5.714;2022-12-24T14:44:20;11.20;99.90
24458;DHT22;12629;50.860;5.714;2022-12-24T14:46:53;11.10;99.90
24458;DHT22;12629;50.860;5.714;2022-12-24T14:49:35;11.10;99.90
24458;DHT22;12629;50.860;5.714;2022-12-24T14:52:13;11.10;99.90
24458;DHT22;12629;50.860;5.714;2022-12-24T14:54:43;11.10;99.90
24458;DHT22;12629;50.860;5.714;2022-12-24T14:57:18;11.10;99.90
24458;DHT22;12629;50.860;5.714;2022-12-24T14:59:48;11.10;99.90
24458;DHT22;12629;50.860;5.714;2022-12-24T15:02:41;11.00;99.90
24458;DHT22;12629;50.860;5.714;2022-12-24T15:05:14;11.00;99.90
24458;DHT22;12629;50.860;5.714;2022-12-24T15:07:45;11.00;99.90
24458;DHT22;12629;50.860;5.714;2022-12-24T15:10:25;10.90;99.90
24458;DHT22;12629;50.860;5.714;2022-12-24T15:12:54;10.80;99.90
24458;DHT22;12629;50.860;5.714;2022-12-24T15:15:22;10.80;99.90
24458;DHT22;12629;50.860;5.714;2022-12-24T15:17:51;10.70;99.90
24458;DHT22;12629;50.860;5.714;2022-12-24T15:20:21;10.60;99.90
24458;DHT22;12629;50.860;5.714;2022-12-24T15:22:51;10.60;99.90
24458;DHT22;12629;50.860;5.714;2022-12-24T15:25:21;10.50;99.90
24458;DHT22;12629;50.860;5.714;2022-12-24T15:27:49;10.50;99.90
24458;DHT22;12629;50.860;5.714;2022-12-24T15:30:19;10.40;99.90
24458;DHT22;12629;50.860;5.714;2022-12-24T15:32:46;10.40;99.90
24458;DHT22;12629;50.860;5.714;2022-12-24T15:35:48;10.30;99.90
24458;DHT22;12629;50.860;5.714;2022-12-24T15:38:29;10.20;99.90
24458;DHT22;12629;50.860;5.714;2022-12-24T15:40:58;10.10;99.90
24458;DHT22;12629;50.860;5.714;2022-12-24T15:43:26;10.10;99.90
24458;DHT22;12629;50.860;5.714;2022-12-24T15:45:54;10.00;99.90
24458;DHT22;12629;50.860;5.714;2022-12-24T15:48:23;10.10;99.90
24458;DHT22;12629;50.860;5.714;2022-12-24T15:50:55;10.10;99.90
24458;DHT22;12629;50.860;5.714;2022-12-24T15:53:26;10.10;99.90
24458;DHT22;12629;50.860;5.714;2022-12-24T15:56:03;10.00;99.90
24458;DHT22;12629;50.860;5.714;2022-12-24T15:58:31;10.00;99.90
24458;DHT22;12629;50.860;5.714;2022-12-24T16:01:04;9.90;99.90
24458;DHT22;12629;50.860;5.714;2022-12-24T16:03:32;9.80;99.90
24458;DHT22;12629;50.860;5.714;2022-12-24T16:06:03;9.60;99.90
24458;DHT22;12629;50.860;5.714;2022-12-24T16:08:32;9.50;99.90
24458;DHT22;12629;50.860;5.714;2022-12-24T16:11:14;9.50;99.90
24458;DHT22;12629;50.860;5.714;2022-12-24T16:14:06;9.40;99.90
24458;DHT22;12629;50.860;5.714;2022-12-24T16:16:37;9.40;99.90